createdAt,value
2022-09-22T00:01:13.737Z,11.35
2022-09-22T00:03:42.822Z,11.35
2022-09-22T00:06:11.309Z,11.35
2022-09-22T00:08:41.084Z,11.35
2022-09-22T00:11:12.436Z,11.34
2022-09-22T00:13:39.443Z,11.33
2022-09-22T00:16:10.483Z,11.32
2022-09-22T00:18:38.570Z,11.30
2022-09-22T00:21:07.564Z,11.28
2022-09-22T00:23:34.516Z,11.26
2022-09-22T00:26:07.716Z,11.23
2022-09-22T00:28:34.667Z,11.20
2022-09-22T00:31:10.710Z,11.16
2022-09-22T00:33:40.200Z,11.11
2022-09-22T00:36:06.991Z,11.07
2022-09-22T00:38:33.942Z,11.01
2022-09-22T00:41:01.413Z,10.96
2022-09-22T00:43:29.897Z,10.90
2022-09-22T00:46:00.539Z,10.83
2022-09-22T00:48:28.414Z,10.76
2022-09-22T00:50:55.775Z,10.65
2022-09-22T00:53:22.729Z,10.51
2022-09-22T00:55:56.030Z,10.41
2022-09-22T00:58:28.826Z,10.34
2022-09-22T01:00:57.548Z,10.30
2022-09-22T01:03:29.699Z,10.27
2022-09-22T01:05:58.388Z,10.25
2022-09-22T01:08:25.861Z,10.21
2022-09-22T01:10:54.246Z,10.20
2022-09-22T01:13:25.865Z,10.19
2022-09-22T01:16:29.585Z,10.18
2022-09-22T01:19:22.799Z,10.12
2022-09-22T01:21:53.098Z,10.10
2022-09-22T01:24:26.532Z,9.99
2022-09-22T01:27:06.897Z,9.93
2022-09-22T01:30:04.890Z,9.87
2022-09-22T01:32:34.703Z,9.85
2022-09-22T01:35:06.471Z,9.85
2022-09-22T01:37:43.767Z,9.84
2022-09-22T01:40:19.622Z,9.80
2022-09-22T01:42:52.600Z,9.73
2022-09-22T01:45:21.848Z,9.67
2022-09-22T01:47:54.666Z,9.63
2022-09-22T01:50:29.760Z,9.57
2022-09-22T01:52:58.862Z,9.47
2022-09-22T01:55:35.395Z,9.40
2022-09-22T01:58:05.871Z,9.36
2022-09-22T02:00:35.278Z,9.29
2022-09-22T02:03:10.730Z,9.22
2022-09-22T02:05:45.310Z,9.18
2022-09-22T02:08:22.162Z,9.19
2022-09-22T02:10:48.893Z,9.19
2022-09-22T02:13:15.850Z,9.19
2022-09-22T02:16:01.983Z,9.18
2022-09-22T02:18:34.243Z,9.19
2022-09-22T02:21:01.500Z,9.20
2022-09-22T02:23:29.076Z,9.21
2022-09-22T02:25:56.427Z,9.18
2022-09-22T02:28:23.588Z,9.14
2022-09-22T02:31:17.650Z,9.08
2022-09-22T02:33:39.409Z,9.00
2022-09-22T02:36:32.471Z,8.95
2022-09-22T02:39:01.572Z,8.89
2022-09-22T02:41:50.027Z,8.84
2022-09-22T02:44:24.077Z,8.80
2022-09-22T02:47:01.385Z,8.80
2022-09-22T02:49:29.612Z,8.84
2022-09-22T02:51:56.579Z,8.86
2022-09-22T02:54:25.672Z,8.82
2022-09-22T02:56:53.945Z,8.71
2022-09-22T02:59:20.689Z,8.63
2022-09-22T03:01:48.320Z,8.61
2022-09-22T03:04:15.713Z,8.61
2022-09-22T03:06:42.556Z,8.61
2022-09-22T03:09:10.222Z,8.62
2022-09-22T03:11:37.680Z,8.66
2022-09-22T03:14:04.319Z,8.70
2022-09-22T03:16:31.471Z,8.74
2022-09-22T03:18:58.673Z,8.80
2022-09-22T03:21:26.700Z,8.86
2022-09-22T03:23:53.954Z,8.94
2022-09-22T03:26:21.414Z,9.00
2022-09-22T03:28:48.361Z,9.08
2022-09-22T03:31:15.453Z,9.15
2022-09-22T03:33:42.778Z,9.22
2022-09-22T03:36:09.832Z,9.30
2022-09-22T03:38:36.686Z,9.37
2022-09-22T03:41:04.655Z,9.42
2022-09-22T03:43:31.607Z,9.48
2022-09-22T03:46:00.190Z,9.51
2022-09-22T03:48:28.575Z,9.50
2022-09-22T03:50:55.822Z,9.44
2022-09-22T03:53:23.228Z,9.42
2022-09-22T03:55:50.648Z,9.43
2022-09-22T03:58:20.257Z,9.43
2022-09-22T04:00:48.435Z,9.43
2022-09-22T04:03:16.918Z,9.43
2022-09-22T04:05:52.363Z,9.45
2022-09-22T04:08:19.619Z,9.50
2022-09-22T04:10:46.463Z,9.55
2022-09-22T04:13:15.149Z,9.60
2022-09-22T04:15:42.307Z,9.64
2022-09-22T04:18:09.869Z,9.71
2022-09-22T04:20:38.840Z,9.75
2022-09-22T04:23:05.658Z,9.85
2022-09-22T04:25:32.351Z,9.93
2022-09-22T04:28:02.302Z,10.00
2022-09-22T04:30:33.171Z,10.07
2022-09-22T04:33:00.666Z,10.15
2022-09-22T04:35:27.921Z,10.20
2022-09-22T04:37:55.552Z,10.28
2022-09-22T04:40:22.873Z,10.36
2022-09-22T04:42:50.809Z,10.47
2022-09-22T04:45:18.371Z,10.58
2022-09-22T04:47:46.853Z,10.68
2022-09-22T04:50:14.117Z,10.80
2022-09-22T04:52:46.817Z,10.93
2022-09-22T04:55:15.295Z,11.06
2022-09-22T04:57:56.482Z,11.19
2022-09-22T05:00:25.954Z,11.33
2022-09-22T05:02:53.201Z,11.46
2022-09-22T05:05:20.108Z,11.61
2022-09-22T05:07:48.513Z,11.75
2022-09-22T05:10:19.501Z,11.88
2022-09-22T05:12:46.196Z,12.01
2022-09-22T05:15:16.535Z,12.13
2022-09-22T05:17:49.221Z,12.25
2022-09-22T05:20:17.715Z,12.37
2022-09-22T05:22:44.665Z,12.51
2022-09-22T05:25:13.573Z,12.65
2022-09-22T05:27:47.905Z,12.82
2022-09-22T05:30:16.696Z,12.98
2022-09-22T05:32:45.700Z,13.11
2022-09-22T05:35:13.889Z,13.26
2022-09-22T05:37:42.481Z,13.38
2022-09-22T05:40:10.487Z,13.48
2022-09-22T05:42:51.237Z,13.56
2022-09-22T05:45:19.933Z,13.65
2022-09-22T05:47:46.711Z,13.74
2022-09-22T05:50:14.831Z,13.85
2022-09-22T05:52:41.782Z,13.96
2022-09-22T05:55:11.540Z,14.10
2022-09-22T05:57:39.242Z,14.22
2022-09-22T06:00:07.488Z,14.33
2022-09-22T06:02:36.205Z,14.44
2022-09-22T06:05:03.455Z,14.54
2022-09-22T06:07:33.075Z,14.62
2022-09-22T06:10:00.347Z,14.72
2022-09-22T06:12:27.703Z,14.83
2022-09-22T06:14:56.503Z,14.94
2022-09-22T06:17:24.369Z,15.05
2022-09-22T06:19:51.729Z,15.18
2022-09-22T06:22:19.085Z,15.35
2022-09-22T06:24:46.233Z,15.54
2022-09-22T06:27:14.409Z,15.71
2022-09-22T06:29:41.054Z,15.84
2022-09-22T06:32:09.380Z,15.93
2022-09-22T06:34:38.040Z,16.06
2022-09-22T06:37:08.243Z,16.19
2022-09-22T06:39:37.829Z,16.32
2022-09-22T06:42:06.541Z,16.42
2022-09-22T06:44:33.281Z,16.50
2022-09-22T06:47:04.851Z,16.63
2022-09-22T06:49:31.682Z,16.74
2022-09-22T06:51:58.423Z,16.84
2022-09-22T06:54:25.990Z,16.98
2022-09-22T06:56:53.548Z,17.19
2022-09-22T06:59:20.371Z,17.43
2022-09-22T07:01:47.629Z,17.63
2022-09-22T07:04:14.718Z,17.81
2022-09-22T07:06:42.900Z,17.93
2022-09-22T07:09:11.999Z,18.00
2022-09-22T07:11:40.682Z,18.13
2022-09-22T07:14:08.127Z,18.25
2022-09-22T07:16:35.752Z,18.36
2022-09-22T07:19:08.723Z,18.47
2022-09-22T07:21:37.314Z,18.54
2022-09-22T07:24:07.707Z,18.65
2022-09-22T07:26:35.430Z,18.83
2022-09-22T07:29:08.057Z,19.09
2022-09-22T07:31:36.334Z,19.41
2022-09-22T07:34:03.358Z,19.71
2022-09-22T07:36:31.947Z,19.96
2022-09-22T07:39:07.158Z,20.17
2022-09-22T07:41:42.547Z,20.44
2022-09-22T07:44:30.397Z,20.64
2022-09-22T07:46:58.264Z,20.81
2022-09-22T07:49:25.942Z,20.92
2022-09-22T07:51:56.986Z,20.98
2022-09-22T07:54:24.964Z,21.07
2022-09-22T07:56:57.545Z,21.16
2022-09-22T07:59:24.597Z,21.36
2022-09-22T08:01:51.766Z,21.51
2022-09-22T08:04:22.263Z,21.66
2022-09-22T08:06:55.512Z,21.88
2022-09-22T08:09:23.980Z,22.23
2022-09-22T08:11:52.467Z,22.73
2022-09-22T08:14:21.975Z,23.11
2022-09-22T08:16:51.057Z,23.34
2022-09-22T08:19:17.936Z,23.58
2022-09-22T08:21:49.178Z,23.74
2022-09-22T08:24:21.755Z,23.78
2022-09-22T08:26:52.776Z,23.81
2022-09-22T08:29:20.641Z,23.93
2022-09-22T08:31:48.806Z,24.07
2022-09-22T08:34:16.709Z,24.19
2022-09-22T08:36:46.682Z,24.40
2022-09-22T08:39:14.240Z,24.52
2022-09-22T08:41:59.619Z,24.52
2022-09-22T08:44:29.391Z,24.42
2022-09-22T08:46:58.874Z,24.17
2022-09-22T08:49:56.951Z,23.89
2022-09-22T08:52:38.244Z,23.70
2022-09-22T08:55:10.920Z,23.63
2022-09-22T08:57:56.463Z,23.67
2022-09-22T09:00:24.092Z,23.75
2022-09-22T09:03:00.247Z,23.76
2022-09-22T09:05:40.879Z,23.76
2022-09-22T09:08:19.399Z,23.93
2022-09-22T09:10:56.896Z,24.23
2022-09-22T09:13:31.936Z,24.44
2022-09-22T09:16:19.272Z,24.46
2022-09-22T09:18:56.551Z,24.58
2022-09-22T09:21:23.498Z,24.65
2022-09-22T09:26:40.950Z,24.27
2022-09-22T09:29:07.960Z,24.25
2022-09-22T09:31:41.098Z,24.39
2022-09-22T09:34:11.684Z,24.68
2022-09-22T09:36:40.642Z,24.83
2022-09-22T09:39:17.913Z,24.78
2022-09-22T09:41:49.573Z,24.60
2022-09-22T09:44:20.463Z,24.42
2022-09-22T09:47:05.288Z,24.24
2022-09-22T09:49:32.955Z,24.01
2022-09-22T09:52:01.235Z,23.83
2022-09-22T09:54:28.371Z,23.68
2022-09-22T09:57:10.399Z,23.51
2022-09-22T09:59:58.030Z,23.31
2022-09-22T10:02:29.278Z,23.08
2022-09-22T10:05:01.135Z,22.99
2022-09-22T10:10:23.473Z,22.97
2022-09-22T10:12:52.172Z,22.94
2022-09-22T10:15:24.255Z,22.81
2022-09-22T10:17:53.042Z,22.60
2022-09-22T10:20:25.964Z,22.36
2022-09-22T10:22:54.511Z,22.16
2022-09-22T10:25:25.353Z,22.00
2022-09-22T10:28:15.234Z,21.88
2022-09-22T10:30:44.677Z,21.77
2022-09-22T10:33:19.819Z,21.74
2022-09-22T10:35:54.094Z,21.73
2022-09-22T10:38:24.732Z,21.77
2022-09-22T10:41:07.404Z,21.90
2022-09-22T10:43:45.345Z,22.02
2022-09-22T10:46:37.946Z,22.13
2022-09-22T10:50:02.791Z,22.18
2022-09-22T10:52:42.432Z,22.10
2022-09-22T10:55:30.471Z,22.06
2022-09-22T10:58:09.397Z,22.04
2022-09-22T11:00:39.927Z,22.10
2022-09-22T11:03:08.213Z,22.36
2022-09-22T11:06:23.945Z,22.73
2022-09-22T11:09:23.192Z,22.91
2022-09-22T11:12:16.254Z,22.80
2022-09-22T11:14:49.541Z,22.59
2022-09-22T11:17:32.056Z,22.47
2022-09-22T11:20:26.954Z,22.36
2022-09-22T11:23:03.421Z,22.24
2022-09-22T11:25:42.656Z,22.14
2022-09-22T11:28:47.185Z,21.97
2022-09-22T11:31:31.440Z,21.75
2022-09-22T11:34:22.656Z,21.57
2022-09-22T11:37:27.293Z,21.45
2022-09-22T11:40:01.271Z,21.45
2022-09-22T11:42:38.494Z,21.40
2022-09-22T11:45:43.648Z,21.34
2022-09-22T11:48:42.845Z,21.27
2022-09-22T11:51:33.957Z,21.27
2022-09-22T11:54:04.419Z,21.26
2022-09-22T11:57:06.981Z,21.26
2022-09-22T11:59:39.765Z,21.38
2022-09-22T12:02:32.260Z,21.49
2022-09-22T12:05:02.346Z,21.62
2022-09-22T12:07:35.151Z,21.70
2022-09-22T12:10:12.728Z,21.74
2022-09-22T12:12:43.359Z,21.77
2022-09-22T12:15:21.902Z,21.80
2022-09-22T12:17:54.879Z,21.80
2022-09-22T12:20:35.045Z,21.75
2022-09-22T12:23:08.444Z,21.66
2022-09-22T12:25:48.994Z,21.59
2022-09-22T12:28:25.594Z,21.49
2022-09-22T12:31:04.533Z,21.36
2022-09-22T12:33:33.273Z,21.31
2022-09-22T12:36:00.986Z,21.32
2022-09-22T12:38:30.090Z,21.31
2022-09-22T12:40:59.300Z,21.29
2022-09-22T12:43:27.366Z,21.31
2022-09-22T12:45:55.267Z,21.32
2022-09-22T12:48:30.588Z,21.34
2022-09-22T12:51:25.908Z,21.37
2022-09-22T12:54:22.352Z,21.46
2022-09-22T12:59:37.552Z,21.66
2022-09-22T13:02:16.860Z,21.73
2022-09-22T13:04:56.655Z,21.79
2022-09-22T13:07:40.701Z,21.87
2022-09-22T13:10:24.599Z,21.88
2022-09-22T13:13:00.424Z,21.87
2022-09-22T13:15:39.551Z,21.84
2022-09-22T13:18:29.068Z,21.81
2022-09-22T13:20:57.411Z,21.78
2022-09-22T13:23:25.885Z,21.73
2022-09-22T13:25:54.996Z,21.67
2022-09-22T13:28:23.818Z,21.58
2022-09-22T13:31:16.416Z,21.51
2022-09-22T13:33:43.585Z,21.44
2022-09-22T13:36:18.731Z,21.38
2022-09-22T13:38:53.970Z,21.22
2022-09-22T13:41:23.950Z,21.00
2022-09-22T13:43:56.361Z,20.84
2022-09-22T13:46:47.678Z,20.73
2022-09-22T13:49:34.183Z,20.60
2022-09-22T13:52:04.754Z,20.41
2022-09-22T13:54:33.402Z,20.26
2022-09-22T13:57:01.015Z,20.12
2022-09-22T13:59:34.487Z,20.03
2022-09-22T14:02:11.290Z,19.96
2022-09-22T14:04:49.778Z,19.91
2022-09-22T14:07:16.433Z,19.90
2022-09-22T14:09:43.466Z,19.90
2022-09-22T14:12:11.336Z,19.91
2022-09-22T14:14:39.928Z,19.93
2022-09-22T14:17:19.262Z,19.92
2022-09-22T14:19:54.711Z,19.87
2022-09-22T14:22:24.239Z,19.76
2022-09-22T14:24:55.473Z,19.65
2022-09-22T14:27:31.939Z,19.56
2022-09-22T14:29:58.685Z,19.44
2022-09-22T14:32:32.909Z,19.31
2022-09-22T14:35:02.479Z,19.18
2022-09-22T14:37:38.759Z,19.07
2022-09-22T14:40:13.813Z,18.99
2022-09-22T14:42:41.689Z,18.92
2022-09-22T14:45:08.943Z,18.82
2022-09-22T14:47:40.032Z,18.73
2022-09-22T14:50:19.406Z,18.65
2022-09-22T14:52:55.606Z,18.58
2022-09-22T14:55:33.933Z,18.52
2022-09-22T14:58:29.051Z,18.43
2022-09-22T15:01:18.046Z,18.37
2022-09-22T15:04:02.275Z,18.28
2022-09-22T15:06:39.366Z,18.20
2022-09-22T15:09:07.897Z,18.13
2022-09-22T15:11:46.719Z,18.06
2022-09-22T15:14:32.266Z,17.98
2022-09-22T15:17:22.671Z,17.91
2022-09-22T15:19:56.535Z,17.85
2022-09-22T15:22:23.605Z,17.79
2022-09-22T15:24:50.593Z,17.75
2022-09-22T15:27:18.990Z,17.69
2022-09-22T15:29:48.078Z,17.64
2022-09-22T15:32:16.051Z,17.60
2022-09-22T15:34:44.237Z,17.57
2022-09-22T15:37:20.720Z,17.52
2022-09-22T15:39:47.671Z,17.47
2022-09-22T15:42:15.130Z,17.43
2022-09-22T15:44:43.444Z,17.40
2022-09-22T15:47:13.851Z,17.36
2022-09-22T15:49:42.234Z,17.30
2022-09-22T15:52:11.053Z,17.23
2022-09-22T15:54:38.387Z,17.18
2022-09-22T15:57:06.007Z,17.13
2022-09-22T15:59:33.209Z,17.09
2022-09-22T16:02:00.670Z,17.06
2022-09-22T16:04:31.818Z,17.04
2022-09-22T16:06:59.991Z,17.01
2022-09-22T16:09:27.756Z,16.96
2022-09-22T16:11:55.321Z,16.81
2022-09-22T16:14:24.830Z,16.77
2022-09-22T16:16:52.188Z,16.68
2022-09-22T16:19:19.854Z,16.61
2022-09-22T16:21:51.312Z,16.58
2022-09-22T16:24:18.466Z,16.53
2022-09-22T16:26:45.617Z,16.56
2022-09-22T16:29:12.571Z,16.56
2022-09-22T16:31:39.241Z,16.54
2022-09-22T16:34:07.352Z,16.51
2022-09-22T16:36:35.469Z,16.49
2022-09-22T16:39:02.975Z,16.48
2022-09-22T16:41:31.582Z,16.47
2022-09-22T16:43:58.962Z,16.47
2022-09-22T16:46:26.120Z,16.48
2022-09-22T16:48:59.665Z,16.49
2022-09-22T16:51:27.204Z,16.49
2022-09-22T16:53:54.360Z,16.48
2022-09-22T16:56:23.109Z,16.45
2022-09-22T16:58:50.207Z,16.44
2022-09-22T17:01:19.786Z,16.42
2022-09-22T17:03:49.132Z,16.42
2022-09-22T17:06:16.800Z,16.44
2022-09-22T17:08:45.395Z,16.46
2022-09-22T17:11:13.374Z,16.47
2022-09-22T17:13:42.826Z,16.46
2022-09-22T17:16:24.406Z,16.47
2022-09-22T17:18:52.365Z,16.47
2022-09-22T17:21:22.800Z,16.50
2022-09-22T17:23:51.899Z,16.51
2022-09-22T17:26:19.777Z,16.51
2022-09-22T17:28:47.038Z,16.48
2022-09-22T17:31:14.489Z,16.44
2022-09-22T17:33:47.886Z,16.39
2022-09-22T17:36:21.934Z,16.38
2022-09-22T17:38:52.762Z,16.34
2022-09-22T17:41:24.840Z,16.29
2022-09-22T17:43:55.174Z,16.28
2022-09-22T17:46:24.565Z,16.26
2022-09-22T17:49:09.961Z,16.21
2022-09-22T17:52:00.464Z,16.17
2022-09-22T17:54:50.662Z,16.12
2022-09-22T17:57:23.659Z,16.09
2022-09-22T17:59:51.227Z,16.01
2022-09-22T18:02:19.068Z,15.94
2022-09-22T18:04:46.766Z,15.91
2022-09-22T18:07:17.507Z,15.86
2022-09-22T18:09:46.708Z,15.87
2022-09-22T18:12:16.013Z,15.82
2022-09-22T18:14:46.653Z,15.72
2022-09-22T18:17:14.588Z,15.58
2022-09-22T18:19:43.988Z,15.38
2022-09-22T18:22:20.619Z,15.29
2022-09-22T18:24:50.942Z,15.23
2022-09-22T18:27:21.552Z,15.24
2022-09-22T18:29:53.036Z,15.11
2022-09-22T18:32:20.809Z,14.96
2022-09-22T18:34:50.734Z,14.89
2022-09-22T18:37:17.854Z,14.90
2022-09-22T18:39:45.360Z,14.84
2022-09-22T18:42:12.727Z,14.83
2022-09-22T18:44:40.907Z,14.77
2022-09-22T18:47:12.428Z,14.67
2022-09-22T18:49:40.503Z,14.61
2022-09-22T18:52:11.861Z,14.56
2022-09-22T18:54:42.555Z,14.49
2022-09-22T18:57:13.708Z,14.43
2022-09-22T18:59:40.871Z,14.34
2022-09-22T19:02:11.792Z,14.25
2022-09-22T19:04:40.202Z,14.19
2022-09-22T19:07:26.822Z,14.12
2022-09-22T19:09:54.492Z,14.07
2022-09-22T19:12:21.241Z,14.01
2022-09-22T19:14:49.635Z,13.93
2022-09-22T19:17:19.357Z,13.88
2022-09-22T19:19:48.452Z,13.84
2022-09-22T19:22:16.422Z,13.78
2022-09-22T19:24:46.848Z,13.78
2022-09-22T19:27:15.235Z,13.76
2022-09-22T19:29:42.284Z,13.74
2022-09-22T19:32:09.750Z,13.74
2022-09-22T19:34:37.417Z,13.69
2022-09-22T19:37:04.879Z,13.61
2022-09-22T19:39:32.344Z,13.56
2022-09-22T19:42:02.576Z,13.51
2022-09-22T19:44:30.163Z,13.49
2022-09-22T19:46:58.322Z,13.47
2022-09-22T19:49:25.065Z,13.45
2022-09-22T19:51:53.037Z,13.43
2022-09-22T19:54:20.507Z,13.40
2022-09-22T19:56:47.671Z,13.34
2022-09-22T19:59:19.237Z,13.27
2022-09-22T20:01:47.497Z,13.21
2022-09-22T20:04:18.896Z,13.19
2022-09-22T20:06:45.849Z,13.17
2022-09-22T20:09:12.901Z,13.11
2022-09-22T20:11:45.593Z,13.05
2022-09-22T20:14:23.092Z,13.00
2022-09-22T20:16:54.246Z,12.97
2022-09-22T20:19:21.900Z,12.99
2022-09-22T20:21:51.206Z,13.04
2022-09-22T20:24:19.406Z,13.05
2022-09-22T20:26:46.362Z,13.00
2022-09-22T20:29:16.511Z,12.95
2022-09-22T20:31:45.591Z,12.89
2022-09-22T20:34:14.495Z,12.83
2022-09-22T20:36:42.814Z,12.78
2022-09-22T20:39:13.213Z,12.72
2022-09-22T20:41:41.196Z,12.67
2022-09-22T20:44:14.091Z,12.61
2022-09-22T20:46:44.364Z,12.57
2022-09-22T20:49:14.045Z,12.54
2022-09-22T20:51:41.611Z,12.50
2022-09-22T20:54:08.868Z,12.41
2022-09-22T20:56:39.440Z,12.36
2022-09-22T20:59:09.431Z,12.38
2022-09-22T21:01:36.875Z,12.33
2022-09-22T21:04:04.466Z,12.28
2022-09-22T21:06:31.419Z,12.19
2022-09-22T21:09:17.018Z,12.11
2022-09-22T21:11:46.621Z,12.04
2022-09-22T21:14:14.904Z,11.94
2022-09-22T21:16:42.572Z,11.91
2022-09-22T21:19:09.523Z,11.94
2022-09-22T21:21:37.191Z,11.90
2022-09-22T21:24:05.479Z,11.88
2022-09-22T21:26:33.584Z,11.86
2022-09-22T21:29:01.327Z,11.84
2022-09-22T21:31:28.370Z,11.76
2022-09-22T21:33:55.429Z,11.68
2022-09-22T21:36:22.689Z,11.60
2022-09-22T21:38:54.672Z,11.54
2022-09-22T21:41:23.247Z,11.54
2022-09-22T21:43:50.303Z,11.58
2022-09-22T21:46:21.405Z,11.54
2022-09-22T21:48:48.614Z,11.56
2022-09-22T21:51:18.936Z,11.57
2022-09-22T21:53:47.940Z,11.51
2022-09-22T21:56:16.637Z,11.50
2022-09-22T21:58:47.067Z,11.39
2022-09-22T22:01:19.390Z,11.37
2022-09-22T22:03:47.752Z,11.37
2022-09-22T22:06:28.091Z,11.26
2022-09-22T22:09:04.052Z,11.26
2022-09-22T22:11:40.131Z,11.25
2022-09-22T22:14:08.790Z,11.20
2022-09-22T22:16:43.855Z,11.18
2022-09-22T22:19:12.140Z,11.14
2022-09-22T22:21:43.904Z,11.12
2022-09-22T22:24:17.827Z,11.11
2022-09-22T22:26:46.829Z,11.10
2022-09-22T22:29:13.872Z,11.08
2022-09-22T22:31:43.054Z,11.06
2022-09-22T22:34:11.368Z,11.03
2022-09-22T22:36:38.827Z,11.05
2022-09-22T22:39:05.985Z,11.08
2022-09-22T22:41:33.953Z,10.95
2022-09-22T22:44:01.931Z,10.87
2022-09-22T22:46:29.646Z,10.85
2022-09-22T22:48:57.136Z,10.89
2022-09-22T22:51:24.019Z,10.82
2022-09-22T22:53:51.421Z,10.85
2022-09-22T22:56:21.526Z,10.84
2022-09-22T22:58:50.094Z,10.76
2022-09-22T23:01:21.823Z,10.65
2022-09-22T23:03:52.721Z,10.69
2022-09-22T23:06:24.686Z,10.60
2022-09-22T23:08:52.046Z,10.51
2022-09-22T23:11:22.681Z,10.47
2022-09-22T23:13:53.520Z,10.43
2022-09-22T23:16:23.140Z,10.38
2022-09-22T23:18:51.213Z,10.38
2022-09-22T23:21:20.065Z,10.36
2022-09-22T23:23:47.376Z,10.41
2022-09-22T23:26:15.040Z,10.53
2022-09-22T23:28:42.506Z,10.58
2022-09-22T23:31:11.781Z,10.44
2022-09-22T23:33:44.875Z,10.41
2022-09-22T23:36:19.338Z,10.40
2022-09-22T23:38:46.898Z,10.38
2022-09-22T23:41:14.873Z,10.40
2022-09-22T23:43:42.238Z,10.49
2022-09-22T23:46:09.728Z,10.42
2022-09-22T23:48:36.758Z,10.37
2022-09-22T23:51:03.920Z,10.38
2022-09-22T23:53:33.362Z,10.36
2022-09-22T23:56:02.037Z,10.34
2022-09-22T23:58:29.740Z,10.34
